sensor_id;sensor_type;location;lat;lon;timestamp;P1;durP1;ratioP1;P2;durP2;ratioP2
63016;SDS011;50274;45.640;11.756;2023-05-19T00:02:20;9.02;;;3.35;;
63016;SDS011;50274;45.640;11.756;2023-05-19T00:04:48;7.40;;;2.97;;
63016;SDS011;50274;45.640;11.756;2023-05-19T00:07:15;8.10;;;3.20;;
63016;SDS011;50274;45.640;11.756;2023-05-19T00:09:43;9.13;;;3.30;;
63016;SDS011;50274;45.640;11.756;2023-05-19T00:12:09;8.75;;;3.25;;
63016;SDS011;50274;45.640;11.756;2023-05-19T00:14:36;6.97;;;2.95;;
63016;SDS011;50274;45.640;11.756;2023-05-19T00:17:02;7.68;;;3.05;;
63016;SDS011;50274;45.640;11.756;2023-05-19T00:19:28;7.15;;;2.90;;
63016;SDS011;50274;45.640;11.756;2023-05-19T00:21:56;7.40;;;3.30;;
63016;SDS011;50274;45.640;11.756;2023-05-19T00:24:22;6.28;;;2.78;;
63016;SDS011;50274;45.640;11.756;2023-05-19T00:26:48;7.07;;;3.05;;
63016;SDS011;50274;45.640;11.756;2023-05-19T00:29:17;9.65;;;3.20;;
63016;SDS011;50274;45.640;11.756;2023-05-19T00:31:45;9.83;;;3.30;;
63016;SDS011;50274;45.640;11.756;2023-05-19T00:34:11;8.50;;;3.08;;
63016;SDS011;50274;45.640;11.756;2023-05-19T00:36:37;7.23;;;3.00;;
63016;SDS011;50274;45.640;11.756;2023-05-19T00:39:02;8.02;;;3.10;;
63016;SDS011;50274;45.640;11.756;2023-05-19T00:41:28;9.10;;;3.30;;
63016;SDS011;50274;45.640;11.756;2023-05-19T00:43:54;7.33;;;3.40;;
63016;SDS011;50274;45.640;11.756;2023-05-19T00:46:20;9.02;;;3.30;;
63016;SDS011;50274;45.640;11.756;2023-05-19T00:48:46;7.47;;;2.97;;
63016;SDS011;50274;45.640;11.756;2023-05-19T00:51:12;7.23;;;3.27;;
63016;SDS011;50274;45.640;11.756;2023-05-19T00:53:40;6.22;;;2.83;;
63016;SDS011;50274;45.640;11.756;2023-05-19T00:56:08;7.30;;;3.40;;
63016;SDS011;50274;45.640;11.756;2023-05-19T00:58:34;6.03;;;2.90;;
63016;SDS011;50274;45.640;11.756;2023-05-19T01:01:03;8.03;;;2.93;;
63016;SDS011;50274;45.640;11.756;2023-05-19T01:03:33;6.20;;;3.20;;
63016;SDS011;50274;45.640;11.756;2023-05-19T01:06:00;7.40;;;3.00;;
63016;SDS011;50274;45.640;11.756;2023-05-19T01:08:29;8.82;;;2.80;;
63016;SDS011;50274;45.640;11.756;2023-05-19T01:11:02;7.55;;;3.38;;
63016;SDS011;50274;45.640;11.756;2023-05-19T01:13:30;7.50;;;2.90;;
63016;SDS011;50274;45.640;11.756;2023-05-19T01:18:33;7.93;;;3.08;;
63016;SDS011;50274;45.640;11.756;2023-05-19T01:21:07;6.90;;;3.00;;
63016;SDS011;50274;45.640;11.756;2023-05-19T01:23:47;7.85;;;3.08;;
63016;SDS011;50274;45.640;11.756;2023-05-19T01:28:56;8.07;;;3.30;;
63016;SDS011;50274;45.640;11.756;2023-05-19T01:31:34;7.28;;;2.90;;
63016;SDS011;50274;45.640;11.756;2023-05-19T01:34:05;7.82;;;2.90;;
63016;SDS011;50274;45.640;11.756;2023-05-19T01:36:31;10.73;;;3.03;;
63016;SDS011;50274;45.640;11.756;2023-05-19T01:38:58;6.37;;;2.73;;
63016;SDS011;50274;45.640;11.756;2023-05-19T01:41:28;7.05;;;3.30;;
63016;SDS011;50274;45.640;11.756;2023-05-19T01:43:57;6.25;;;2.97;;
63016;SDS011;50274;45.640;11.756;2023-05-19T01:46:24;5.22;;;2.55;;
63016;SDS011;50274;45.640;11.756;2023-05-19T01:48:52;6.47;;;2.90;;
63016;SDS011;50274;45.640;11.756;2023-05-19T01:51:18;6.20;;;2.73;;
63016;SDS011;50274;45.640;11.756;2023-05-19T01:53:46;7.68;;;2.60;;
63016;SDS011;50274;45.640;11.756;2023-05-19T01:56:13;6.75;;;2.88;;
63016;SDS011;50274;45.640;11.756;2023-05-19T01:58:46;6.88;;;2.80;;
63016;SDS011;50274;45.640;11.756;2023-05-19T02:06:35;5.18;;;2.55;;
63016;SDS011;50274;45.640;11.756;2023-05-19T02:09:14;6.95;;;2.80;;
63016;SDS011;50274;45.640;11.756;2023-05-19T02:14:49;5.78;;;2.70;;
63016;SDS011;50274;45.640;11.756;2023-05-19T02:17:22;6.83;;;2.63;;
63016;SDS011;50274;45.640;11.756;2023-05-19T02:19:53;7.85;;;2.88;;
63016;SDS011;50274;45.640;11.756;2023-05-19T02:22:19;7.07;;;2.78;;
63016;SDS011;50274;45.640;11.756;2023-05-19T02:24:45;6.53;;;3.07;;
63016;SDS011;50274;45.640;11.756;2023-05-19T02:27:11;5.53;;;2.75;;
63016;SDS011;50274;45.640;11.756;2023-05-19T02:29:37;6.03;;;2.90;;
63016;SDS011;50274;45.640;11.756;2023-05-19T02:32:04;9.02;;;3.45;;
63016;SDS011;50274;45.640;11.756;2023-05-19T02:34:30;6.23;;;3.00;;
63016;SDS011;50274;45.640;11.756;2023-05-19T02:36:56;8.48;;;3.75;;
63016;SDS011;50274;45.640;11.756;2023-05-19T02:39:22;6.73;;;3.20;;
63016;SDS011;50274;45.640;11.756;2023-05-19T02:41:50;7.47;;;3.27;;
63016;SDS011;50274;45.640;11.756;2023-05-19T02:44:16;6.35;;;3.22;;
63016;SDS011;50274;45.640;11.756;2023-05-19T02:46:42;7.90;;;3.30;;
63016;SDS011;50274;45.640;11.756;2023-05-19T02:49:08;7.10;;;3.20;;
63016;SDS011;50274;45.640;11.756;2023-05-19T02:51:35;6.07;;;2.85;;
63016;SDS011;50274;45.640;11.756;2023-05-19T02:54:00;6.47;;;3.33;;
63016;SDS011;50274;45.640;11.756;2023-05-19T02:56:26;7.37;;;3.00;;
63016;SDS011;50274;45.640;11.756;2023-05-19T02:58:52;6.45;;;2.95;;
63016;SDS011;50274;45.640;11.756;2023-05-19T03:01:21;7.10;;;3.13;;
63016;SDS011;50274;45.640;11.756;2023-05-19T03:03:47;7.40;;;3.33;;
63016;SDS011;50274;45.640;11.756;2023-05-19T03:06:13;7.22;;;2.92;;
63016;SDS011;50274;45.640;11.756;2023-05-19T03:08:39;8.57;;;3.33;;
63016;SDS011;50274;45.640;11.756;2023-05-19T03:11:05;6.37;;;2.93;;
63016;SDS011;50274;45.640;11.756;2023-05-19T03:13:31;6.28;;;3.00;;
63016;SDS011;50274;45.640;11.756;2023-05-19T03:15:57;6.50;;;3.40;;
63016;SDS011;50274;45.640;11.756;2023-05-19T03:18:23;6.63;;;3.20;;
63016;SDS011;50274;45.640;11.756;2023-05-19T03:20:50;9.10;;;3.63;;
63016;SDS011;50274;45.640;11.756;2023-05-19T03:23:18;7.82;;;3.20;;
63016;SDS011;50274;45.640;11.756;2023-05-19T03:25:46;6.20;;;3.10;;
63016;SDS011;50274;45.640;11.756;2023-05-19T03:28:17;7.70;;;3.45;;
63016;SDS011;50274;45.640;11.756;2023-05-19T03:30:43;6.90;;;3.22;;
63016;SDS011;50274;45.640;11.756;2023-05-19T03:33:08;6.93;;;3.10;;
63016;SDS011;50274;45.640;11.756;2023-05-19T03:35:37;7.07;;;3.30;;
63016;SDS011;50274;45.640;11.756;2023-05-19T03:38:02;5.40;;;2.72;;
63016;SDS011;50274;45.640;11.756;2023-05-19T03:40:28;6.77;;;2.70;;
63016;SDS011;50274;45.640;11.756;2023-05-19T03:42:56;6.70;;;3.13;;
63016;SDS011;50274;45.640;11.756;2023-05-19T03:45:22;7.13;;;3.15;;
63016;SDS011;50274;45.640;11.756;2023-05-19T03:47:48;7.97;;;3.27;;
63016;SDS011;50274;45.640;11.756;2023-05-19T03:50:14;6.10;;;2.97;;
63016;SDS011;50274;45.640;11.756;2023-05-19T03:52:40;7.00;;;2.80;;
63016;SDS011;50274;45.640;11.756;2023-05-19T03:55:09;6.33;;;2.93;;
63016;SDS011;50274;45.640;11.756;2023-05-19T03:57:37;8.35;;;3.08;;
63016;SDS011;50274;45.640;11.756;2023-05-19T04:00:03;8.27;;;3.08;;
63016;SDS011;50274;45.640;11.756;2023-05-19T04:02:30;6.35;;;2.80;;
63016;SDS011;50274;45.640;11.756;2023-05-19T04:04:55;7.57;;;3.17;;
63016;SDS011;50274;45.640;11.756;2023-05-19T04:07:21;5.47;;;2.65;;
63016;SDS011;50274;45.640;11.756;2023-05-19T04:09:48;6.43;;;3.10;;
63016;SDS011;50274;45.640;11.756;2023-05-19T04:12:15;8.13;;;3.00;;
63016;SDS011;50274;45.640;11.756;2023-05-19T04:14:40;6.20;;;3.00;;
63016;SDS011;50274;45.640;11.756;2023-05-19T04:17:06;7.85;;;3.05;;
63016;SDS011;50274;45.640;11.756;2023-05-19T04:19:32;7.15;;;2.78;;
63016;SDS011;50274;45.640;11.756;2023-05-19T04:21:58;7.20;;;3.20;;
63016;SDS011;50274;45.640;11.756;2023-05-19T04:24:24;6.97;;;3.00;;
63016;SDS011;50274;45.640;11.756;2023-05-19T04:26:50;6.72;;;2.85;;
63016;SDS011;50274;45.640;11.756;2023-05-19T04:29:17;6.07;;;2.75;;
63016;SDS011;50274;45.640;11.756;2023-05-19T04:31:45;6.30;;;3.00;;
63016;SDS011;50274;45.640;11.756;2023-05-19T04:34:11;12.35;;;3.00;;
63016;SDS011;50274;45.640;11.756;2023-05-19T04:36:37;7.15;;;2.95;;
63016;SDS011;50274;45.640;11.756;2023-05-19T04:39:03;7.10;;;2.90;;
63016;SDS011;50274;45.640;11.756;2023-05-19T04:41:33;8.05;;;3.08;;
63016;SDS011;50274;45.640;11.756;2023-05-19T04:43:59;5.43;;;2.55;;
63016;SDS011;50274;45.640;11.756;2023-05-19T04:46:25;6.30;;;3.17;;
63016;SDS011;50274;45.640;11.756;2023-05-19T04:48:53;7.38;;;3.35;;
63016;SDS011;50274;45.640;11.756;2023-05-19T04:51:21;7.32;;;3.00;;
63016;SDS011;50274;45.640;11.756;2023-05-19T04:53:52;14.75;;;3.53;;
63016;SDS011;50274;45.640;11.756;2023-05-19T04:56:21;6.00;;;2.73;;
63016;SDS011;50274;45.640;11.756;2023-05-19T04:58:49;7.88;;;3.78;;
63016;SDS011;50274;45.640;11.756;2023-05-19T05:01:15;6.75;;;3.20;;
63016;SDS011;50274;45.640;11.756;2023-05-19T05:03:41;9.15;;;3.40;;
63016;SDS011;50274;45.640;11.756;2023-05-19T05:06:07;7.63;;;3.27;;
63016;SDS011;50274;45.640;11.756;2023-05-19T05:08:33;7.93;;;3.55;;
63016;SDS011;50274;45.640;11.756;2023-05-19T05:11:01;8.95;;;3.42;;
63016;SDS011;50274;45.640;11.756;2023-05-19T05:13:28;7.57;;;3.40;;
63016;SDS011;50274;45.640;11.756;2023-05-19T05:15:57;6.47;;;3.30;;
63016;SDS011;50274;45.640;11.756;2023-05-19T05:18:23;6.70;;;3.40;;
63016;SDS011;50274;45.640;11.756;2023-05-19T05:20:50;8.27;;;3.65;;
63016;SDS011;50274;45.640;11.756;2023-05-19T05:23:17;9.18;;;3.33;;
63016;SDS011;50274;45.640;11.756;2023-05-19T05:25:45;7.65;;;3.40;;
63016;SDS011;50274;45.640;11.756;2023-05-19T05:28:11;7.60;;;3.40;;
63016;SDS011;50274;45.640;11.756;2023-05-19T05:30:37;7.85;;;3.80;;
63016;SDS011;50274;45.640;11.756;2023-05-19T05:33:06;8.20;;;3.08;;
63016;SDS011;50274;45.640;11.756;2023-05-19T05:35:32;9.82;;;3.63;;
63016;SDS011;50274;45.640;11.756;2023-05-19T05:37:58;8.30;;;3.77;;
63016;SDS011;50274;45.640;11.756;2023-05-19T05:40:25;8.45;;;3.65;;
63016;SDS011;50274;45.640;11.756;2023-05-19T05:42:51;9.02;;;3.28;;
63016;SDS011;50274;45.640;11.756;2023-05-19T05:45:20;7.97;;;3.67;;
63016;SDS011;50274;45.640;11.756;2023-05-19T05:47:47;7.28;;;3.67;;
63016;SDS011;50274;45.640;11.756;2023-05-19T05:50:16;8.40;;;3.97;;
63016;SDS011;50274;45.640;11.756;2023-05-19T05:52:46;7.00;;;3.60;;
63016;SDS011;50274;45.640;11.756;2023-05-19T05:55:12;8.18;;;3.42;;
63016;SDS011;50274;45.640;11.756;2023-05-19T05:57:39;9.10;;;3.55;;
63016;SDS011;50274;45.640;11.756;2023-05-19T06:00:08;8.48;;;3.75;;
63016;SDS011;50274;45.640;11.756;2023-05-19T06:02:40;8.60;;;3.37;;
63016;SDS011;50274;45.640;11.756;2023-05-19T06:05:07;7.22;;;3.53;;
63016;SDS011;50274;45.640;11.756;2023-05-19T06:07:37;7.82;;;4.18;;
63016;SDS011;50274;45.640;11.756;2023-05-19T06:10:06;6.93;;;3.95;;
63016;SDS011;50274;45.640;11.756;2023-05-19T06:12:33;8.85;;;3.08;;
63016;SDS011;50274;45.640;11.756;2023-05-19T06:15:00;8.77;;;3.43;;
63016;SDS011;50274;45.640;11.756;2023-05-19T06:17:26;7.35;;;3.45;;
63016;SDS011;50274;45.640;11.756;2023-05-19T06:19:53;10.55;;;3.53;;
63016;SDS011;50274;45.640;11.756;2023-05-19T06:22:18;7.95;;;3.40;;
63016;SDS011;50274;45.640;11.756;2023-05-19T06:24:46;7.53;;;3.67;;
63016;SDS011;50274;45.640;11.756;2023-05-19T06:27:12;7.95;;;3.53;;
63016;SDS011;50274;45.640;11.756;2023-05-19T06:29:38;7.37;;;3.57;;
63016;SDS011;50274;45.640;11.756;2023-05-19T06:32:04;8.00;;;3.33;;
63016;SDS011;50274;45.640;11.756;2023-05-19T06:34:32;8.35;;;3.85;;
63016;SDS011;50274;45.640;11.756;2023-05-19T06:36:58;7.85;;;3.60;;
63016;SDS011;50274;45.640;11.756;2023-05-19T06:39:26;9.80;;;3.87;;
63016;SDS011;50274;45.640;11.756;2023-05-19T06:41:52;9.32;;;4.18;;
63016;SDS011;50274;45.640;11.756;2023-05-19T06:44:18;8.45;;;4.00;;
63016;SDS011;50274;45.640;11.756;2023-05-19T06:46:46;5.78;;;3.28;;
63016;SDS011;50274;45.640;11.756;2023-05-19T06:49:11;7.13;;;3.60;;
63016;SDS011;50274;45.640;11.756;2023-05-19T06:51:37;6.75;;;3.35;;
63016;SDS011;50274;45.640;11.756;2023-05-19T06:54:03;7.78;;;3.40;;
63016;SDS011;50274;45.640;11.756;2023-05-19T06:56:36;7.18;;;3.30;;
63016;SDS011;50274;45.640;11.756;2023-05-19T06:59:02;9.90;;;3.83;;
63016;SDS011;50274;45.640;11.756;2023-05-19T07:01:28;9.07;;;3.30;;
63016;SDS011;50274;45.640;11.756;2023-05-19T07:03:54;7.45;;;3.20;;
63016;SDS011;50274;45.640;11.756;2023-05-19T07:06:23;8.70;;;3.92;;
63016;SDS011;50274;45.640;11.756;2023-05-19T07:08:48;7.83;;;3.87;;
63016;SDS011;50274;45.640;11.756;2023-05-19T07:11:14;9.55;;;3.70;;
63016;SDS011;50274;45.640;11.756;2023-05-19T07:13:40;10.67;;;4.20;;
63016;SDS011;50274;45.640;11.756;2023-05-19T07:16:06;7.82;;;3.63;;
63016;SDS011;50274;45.640;11.756;2023-05-19T07:18:32;8.40;;;3.63;;
63016;SDS011;50274;45.640;11.756;2023-05-19T07:20:57;7.83;;;3.17;;
63016;SDS011;50274;45.640;11.756;2023-05-19T07:23:23;7.53;;;3.38;;
63016;SDS011;50274;45.640;11.756;2023-05-19T07:25:52;10.15;;;3.92;;
63016;SDS011;50274;45.640;11.756;2023-05-19T07:28:21;9.70;;;3.50;;
63016;SDS011;50274;45.640;11.756;2023-05-19T07:30:47;10.13;;;3.47;;
63016;SDS011;50274;45.640;11.756;2023-05-19T07:33:14;8.55;;;3.65;;
63016;SDS011;50274;45.640;11.756;2023-05-19T07:35:39;7.55;;;3.53;;
63016;SDS011;50274;45.640;11.756;2023-05-19T07:38:05;7.03;;;3.27;;
63016;SDS011;50274;45.640;11.756;2023-05-19T07:40:31;8.35;;;3.63;;
63016;SDS011;50274;45.640;11.756;2023-05-19T07:42:57;11.07;;;3.60;;
63016;SDS011;50274;45.640;11.756;2023-05-19T07:45:23;7.32;;;3.55;;
63016;SDS011;50274;45.640;11.756;2023-05-19T07:47:48;8.43;;;3.40;;
63016;SDS011;50274;45.640;11.756;2023-05-19T07:50:14;8.83;;;3.27;;
63016;SDS011;50274;45.640;11.756;2023-05-19T07:52:40;11.52;;;3.50;;
63016;SDS011;50274;45.640;11.756;2023-05-19T07:55:06;9.30;;;3.53;;
63016;SDS011;50274;45.640;11.756;2023-05-19T07:57:32;7.85;;;3.20;;
63016;SDS011;50274;45.640;11.756;2023-05-19T07:59:57;7.90;;;2.92;;
63016;SDS011;50274;45.640;11.756;2023-05-19T08:02:23;6.33;;;2.83;;
63016;SDS011;50274;45.640;11.756;2023-05-19T08:04:49;8.18;;;3.30;;
63016;SDS011;50274;45.640;11.756;2023-05-19T08:07:15;7.57;;;2.85;;
63016;SDS011;50274;45.640;11.756;2023-05-19T08:09:53;7.83;;;2.73;;
63016;SDS011;50274;45.640;11.756;2023-05-19T08:12:22;7.88;;;3.10;;
63016;SDS011;50274;45.640;11.756;2023-05-19T08:14:47;6.55;;;3.08;;
63016;SDS011;50274;45.640;11.756;2023-05-19T08:17:13;7.17;;;3.20;;
63016;SDS011;50274;45.640;11.756;2023-05-19T08:19:39;7.97;;;3.42;;
63016;SDS011;50274;45.640;11.756;2023-05-19T08:22:05;7.63;;;3.10;;
63016;SDS011;50274;45.640;11.756;2023-05-19T08:24:31;7.13;;;2.83;;
63016;SDS011;50274;45.640;11.756;2023-05-19T08:26:57;8.40;;;3.00;;
63016;SDS011;50274;45.640;11.756;2023-05-19T08:29:23;6.53;;;3.05;;
63016;SDS011;50274;45.640;11.756;2023-05-19T08:31:49;6.53;;;2.90;;
63016;SDS011;50274;45.640;11.756;2023-05-19T08:34:17;6.80;;;3.03;;
63016;SDS011;50274;45.640;11.756;2023-05-19T08:36:43;6.63;;;2.70;;
63016;SDS011;50274;45.640;11.756;2023-05-19T08:39:09;6.72;;;3.20;;
63016;SDS011;50274;45.640;11.756;2023-05-19T08:41:35;7.28;;;3.13;;
63016;SDS011;50274;45.640;11.756;2023-05-19T08:44:02;5.97;;;3.40;;
63016;SDS011;50274;45.640;11.756;2023-05-19T08:46:28;7.80;;;3.13;;
63016;SDS011;50274;45.640;11.756;2023-05-19T08:48:57;7.72;;;2.97;;
63016;SDS011;50274;45.640;11.756;2023-05-19T08:54:10;8.43;;;2.85;;
63016;SDS011;50274;45.640;11.756;2023-05-19T08:56:38;6.90;;;2.80;;
63016;SDS011;50274;45.640;11.756;2023-05-19T08:59:06;6.35;;;2.70;;
63016;SDS011;50274;45.640;11.756;2023-05-19T09:01:32;9.18;;;2.60;;
63016;SDS011;50274;45.640;11.756;2023-05-19T09:03:58;5.00;;;2.50;;
63016;SDS011;50274;45.640;11.756;2023-05-19T09:06:25;9.60;;;2.88;;
63016;SDS011;50274;45.640;11.756;2023-05-19T09:08:51;5.30;;;2.60;;
63016;SDS011;50274;45.640;11.756;2023-05-19T09:11:17;7.72;;;2.88;;
63016;SDS011;50274;45.640;11.756;2023-05-19T09:13:42;6.10;;;2.90;;
63016;SDS011;50274;45.640;11.756;2023-05-19T09:16:08;6.20;;;2.53;;
63016;SDS011;50274;45.640;11.756;2023-05-19T09:18:37;6.93;;;2.72;;
63016;SDS011;50274;45.640;11.756;2023-05-19T09:21:04;6.05;;;2.60;;
63016;SDS011;50274;45.640;11.756;2023-05-19T09:23:31;5.50;;;2.42;;
63016;SDS011;50274;45.640;11.756;2023-05-19T09:26:00;7.77;;;2.83;;
63016;SDS011;50274;45.640;11.756;2023-05-19T09:28:33;6.28;;;3.17;;
63016;SDS011;50274;45.640;11.756;2023-05-19T09:31:01;6.03;;;2.70;;
63016;SDS011;50274;45.640;11.756;2023-05-19T09:33:40;8.00;;;3.08;;
63016;SDS011;50274;45.640;11.756;2023-05-19T09:36:07;5.13;;;2.20;;
63016;SDS011;50274;45.640;11.756;2023-05-19T09:38:39;7.20;;;2.10;;
63016;SDS011;50274;45.640;11.756;2023-05-19T09:41:07;4.57;;;1.85;;
63016;SDS011;50274;45.640;11.756;2023-05-19T09:43:33;4.10;;;1.80;;
63016;SDS011;50274;45.640;11.756;2023-05-19T09:46:05;5.15;;;1.88;;
63016;SDS011;50274;45.640;11.756;2023-05-19T09:48:34;5.13;;;2.08;;
63016;SDS011;50274;45.640;11.756;2023-05-19T09:51:01;5.77;;;2.17;;
63016;SDS011;50274;45.640;11.756;2023-05-19T09:53:29;5.32;;;1.80;;
63016;SDS011;50274;45.640;11.756;2023-05-19T09:55:56;5.10;;;2.00;;
63016;SDS011;50274;45.640;11.756;2023-05-19T09:58:23;5.10;;;1.70;;
63016;SDS011;50274;45.640;11.756;2023-05-19T10:00:50;4.47;;;2.13;;
63016;SDS011;50274;45.640;11.756;2023-05-19T10:03:19;7.23;;;2.23;;
63016;SDS011;50274;45.640;11.756;2023-05-19T10:05:46;7.65;;;2.25;;
63016;SDS011;50274;45.640;11.756;2023-05-19T10:08:14;8.55;;;2.33;;
63016;SDS011;50274;45.640;11.756;2023-05-19T10:10:46;6.25;;;2.35;;
63016;SDS011;50274;45.640;11.756;2023-05-19T10:13:13;6.38;;;2.05;;
63016;SDS011;50274;45.640;11.756;2023-05-19T10:15:40;5.53;;;1.97;;
63016;SDS011;50274;45.640;11.756;2023-05-19T10:18:08;5.35;;;2.03;;
63016;SDS011;50274;45.640;11.756;2023-05-19T10:20:34;5.88;;;2.10;;
63016;SDS011;50274;45.640;11.756;2023-05-19T10:23:01;5.97;;;2.22;;
63016;SDS011;50274;45.640;11.756;2023-05-19T10:25:29;6.28;;;2.50;;
63016;SDS011;50274;45.640;11.756;2023-05-19T10:27:59;4.77;;;2.10;;
63016;SDS011;50274;45.640;11.756;2023-05-19T10:30:33;5.88;;;2.20;;
63016;SDS011;50274;45.640;11.756;2023-05-19T10:33:02;5.20;;;2.30;;
63016;SDS011;50274;45.640;11.756;2023-05-19T10:38:32;9.10;;;2.80;;
63016;SDS011;50274;45.640;11.756;2023-05-19T10:44:08;4.53;;;1.77;;
63016;SDS011;50274;45.640;11.756;2023-05-19T10:46:54;4.75;;;2.08;;
63016;SDS011;50274;45.640;11.756;2023-05-19T10:49:20;5.88;;;1.98;;
63016;SDS011;50274;45.640;11.756;2023-05-19T10:51:46;8.32;;;2.67;;
63016;SDS011;50274;45.640;11.756;2023-05-19T10:54:12;6.07;;;2.70;;
63016;SDS011;50274;45.640;11.756;2023-05-19T10:56:41;5.57;;;2.55;;
63016;SDS011;50274;45.640;11.756;2023-05-19T10:59:29;6.82;;;2.70;;
63016;SDS011;50274;45.640;11.756;2023-05-19T11:02:02;7.07;;;2.75;;
63016;SDS011;50274;45.640;11.756;2023-05-19T11:04:47;6.70;;;2.40;;
63016;SDS011;50274;45.640;11.756;2023-05-19T11:07:17;5.40;;;2.20;;
63016;SDS011;50274;45.640;11.756;2023-05-19T11:09:51;5.75;;;2.60;;
63016;SDS011;50274;45.640;11.756;2023-05-19T11:12:18;5.65;;;2.10;;
63016;SDS011;50274;45.640;11.756;2023-05-19T11:14:46;4.65;;;1.98;;
63016;SDS011;50274;45.640;11.756;2023-05-19T11:17:12;4.40;;;1.83;;
63016;SDS011;50274;45.640;11.756;2023-05-19T11:19:50;4.50;;;1.70;;
63016;SDS011;50274;45.640;11.756;2023-05-19T11:22:24;4.82;;;2.08;;
63016;SDS011;50274;45.640;11.756;2023-05-19T11:24:52;5.75;;;1.70;;
63016;SDS011;50274;45.640;11.756;2023-05-19T11:27:32;5.30;;;1.80;;
63016;SDS011;50274;45.640;11.756;2023-05-19T11:32:32;4.60;;;1.88;;
63016;SDS011;50274;45.640;11.756;2023-05-19T11:35:00;4.45;;;1.60;;
63016;SDS011;50274;45.640;11.756;2023-05-19T11:37:26;4.38;;;1.40;;
63016;SDS011;50274;45.640;11.756;2023-05-19T11:39:56;4.65;;;1.30;;
63016;SDS011;50274;45.640;11.756;2023-05-19T11:42:22;5.20;;;1.63;;
63016;SDS011;50274;45.640;11.756;2023-05-19T11:44:48;4.50;;;1.30;;
63016;SDS011;50274;45.640;11.756;2023-05-19T11:47:14;5.93;;;1.30;;
63016;SDS011;50274;45.640;11.756;2023-05-19T11:49:44;3.92;;;1.15;;
63016;SDS011;50274;45.640;11.756;2023-05-19T11:52:12;4.47;;;1.23;;
63016;SDS011;50274;45.640;11.756;2023-05-19T11:54:39;6.05;;;1.80;;
63016;SDS011;50274;45.640;11.756;2023-05-19T11:57:08;4.38;;;1.25;;
63016;SDS011;50274;45.640;11.756;2023-05-19T11:59:38;5.07;;;1.35;;
63016;SDS011;50274;45.640;11.756;2023-05-19T12:04:42;4.30;;;1.30;;
63016;SDS011;50274;45.640;11.756;2023-05-19T12:07:11;4.80;;;1.10;;
63016;SDS011;50274;45.640;11.756;2023-05-19T12:09:38;3.65;;;0.80;;
63016;SDS011;50274;45.640;11.756;2023-05-19T12:12:04;3.20;;;0.70;;
63016;SDS011;50274;45.640;11.756;2023-05-19T12:14:30;4.13;;;0.60;;
63016;SDS011;50274;45.640;11.756;2023-05-19T12:16:56;3.05;;;0.80;;
63016;SDS011;50274;45.640;11.756;2023-05-19T12:19:22;3.22;;;0.80;;
63016;SDS011;50274;45.640;11.756;2023-05-19T12:21:50;6.10;;;1.20;;
63016;SDS011;50274;45.640;11.756;2023-05-19T12:24:17;3.07;;;0.77;;
63016;SDS011;50274;45.640;11.756;2023-05-19T12:26:44;2.67;;;0.70;;
63016;SDS011;50274;45.640;11.756;2023-05-19T12:29:11;3.55;;;0.88;;
63016;SDS011;50274;45.640;11.756;2023-05-19T12:31:37;2.75;;;0.75;;
63016;SDS011;50274;45.640;11.756;2023-05-19T12:34:03;4.40;;;0.57;;
63016;SDS011;50274;45.640;11.756;2023-05-19T12:36:30;2.80;;;0.70;;
63016;SDS011;50274;45.640;11.756;2023-05-19T12:38:56;2.92;;;0.50;;
63016;SDS011;50274;45.640;11.756;2023-05-19T12:41:23;3.58;;;0.50;;
63016;SDS011;50274;45.640;11.756;2023-05-19T12:43:51;4.47;;;0.38;;
63016;SDS011;50274;45.640;11.756;2023-05-19T12:46:18;2.83;;;0.70;;
63016;SDS011;50274;45.640;11.756;2023-05-19T12:48:45;4.13;;;0.50;;
63016;SDS011;50274;45.640;11.756;2023-05-19T12:51:15;4.85;;;0.57;;
63016;SDS011;50274;45.640;11.756;2023-05-19T12:53:44;4.00;;;0.70;;
63016;SDS011;50274;45.640;11.756;2023-05-19T12:56:12;2.72;;;0.60;;
63016;SDS011;50274;45.640;11.756;2023-05-19T12:58:39;4.00;;;0.70;;
63016;SDS011;50274;45.640;11.756;2023-05-19T13:01:14;2.13;;;0.47;;
63016;SDS011;50274;45.640;11.756;2023-05-19T13:03:41;3.35;;;0.50;;
63016;SDS011;50274;45.640;11.756;2023-05-19T13:06:07;3.10;;;0.82;;
63016;SDS011;50274;45.640;11.756;2023-05-19T13:08:35;3.03;;;0.63;;
63016;SDS011;50274;45.640;11.756;2023-05-19T13:11:01;2.87;;;0.50;;
63016;SDS011;50274;45.640;11.756;2023-05-19T13:13:27;3.25;;;0.68;;
63016;SDS011;50274;45.640;11.756;2023-05-19T13:15:53;4.50;;;0.60;;
63016;SDS011;50274;45.640;11.756;2023-05-19T13:18:19;4.00;;;0.80;;
63016;SDS011;50274;45.640;11.756;2023-05-19T13:20:45;3.37;;;0.50;;
63016;SDS011;50274;45.640;11.756;2023-05-19T13:23:13;2.67;;;0.60;;
63016;SDS011;50274;45.640;11.756;2023-05-19T13:25:39;2.67;;;0.40;;
63016;SDS011;50274;45.640;11.756;2023-05-19T13:28:05;2.88;;;0.60;;
63016;SDS011;50274;45.640;11.756;2023-05-19T13:30:32;2.78;;;0.50;;
63016;SDS011;50274;45.640;11.756;2023-05-19T13:32:59;2.50;;;0.50;;
63016;SDS011;50274;45.640;11.756;2023-05-19T13:35:24;3.65;;;0.80;;
63016;SDS011;50274;45.640;11.756;2023-05-19T13:37:50;2.80;;;0.65;;
63016;SDS011;50274;45.640;11.756;2023-05-19T13:40:16;2.80;;;0.60;;
63016;SDS011;50274;45.640;11.756;2023-05-19T13:42:43;3.13;;;0.50;;
63016;SDS011;50274;45.640;11.756;2023-05-19T13:45:09;3.10;;;0.70;;
63016;SDS011;50274;45.640;11.756;2023-05-19T13:47:37;2.55;;;0.70;;
63016;SDS011;50274;45.640;11.756;2023-05-19T13:50:03;3.83;;;0.90;;
63016;SDS011;50274;45.640;11.756;2023-05-19T13:52:30;2.67;;;0.40;;
63016;SDS011;50274;45.640;11.756;2023-05-19T13:54:56;2.50;;;0.63;;
63016;SDS011;50274;45.640;11.756;2023-05-19T13:57:23;3.20;;;0.77;;
63016;SDS011;50274;45.640;11.756;2023-05-19T13:59:52;4.55;;;0.80;;
63016;SDS011;50274;45.640;11.756;2023-05-19T14:02:19;4.28;;;0.70;;
63016;SDS011;50274;45.640;11.756;2023-05-19T14:04:45;3.03;;;0.60;;
63016;SDS011;50274;45.640;11.756;2023-05-19T14:07:11;2.97;;;0.80;;
63016;SDS011;50274;45.640;11.756;2023-05-19T14:09:37;4.22;;;0.80;;
63016;SDS011;50274;45.640;11.756;2023-05-19T14:12:02;3.33;;;0.70;;
63016;SDS011;50274;45.640;11.756;2023-05-19T14:14:30;3.55;;;0.70;;
63016;SDS011;50274;45.640;11.756;2023-05-19T14:16:56;4.25;;;1.00;;
63016;SDS011;50274;45.640;11.756;2023-05-19T14:19:21;3.83;;;0.63;;
63016;SDS011;50274;45.640;11.756;2023-05-19T14:21:49;3.60;;;1.20;;
63016;SDS011;50274;45.640;11.756;2023-05-19T14:24:15;4.35;;;0.90;;
63016;SDS011;50274;45.640;11.756;2023-05-19T14:26:40;6.22;;;1.10;;
63016;SDS011;50274;45.640;11.756;2023-05-19T14:29:06;5.37;;;1.20;;
63016;SDS011;50274;45.640;11.756;2023-05-19T14:31:32;5.05;;;1.50;;
63016;SDS011;50274;45.640;11.756;2023-05-19T14:33:59;6.13;;;1.95;;
63016;SDS011;50274;45.640;11.756;2023-05-19T14:36:25;6.87;;;2.43;;
63016;SDS011;50274;45.640;11.756;2023-05-19T14:38:51;3.92;;;1.45;;
63016;SDS011;50274;45.640;11.756;2023-05-19T14:41:17;3.90;;;0.93;;
63016;SDS011;50274;45.640;11.756;2023-05-19T14:43:43;3.20;;;0.70;;
63016;SDS011;50274;45.640;11.756;2023-05-19T14:46:08;4.73;;;1.30;;
63016;SDS011;50274;45.640;11.756;2023-05-19T14:48:34;4.32;;;1.30;;
63016;SDS011;50274;45.640;11.756;2023-05-19T14:51:00;3.30;;;0.97;;
63016;SDS011;50274;45.640;11.756;2023-05-19T14:53:26;5.47;;;0.60;;
63016;SDS011;50274;45.640;11.756;2023-05-19T14:55:52;3.10;;;0.75;;
63016;SDS011;50274;45.640;11.756;2023-05-19T14:58:17;3.33;;;0.70;;
63016;SDS011;50274;45.640;11.756;2023-05-19T15:00:43;4.97;;;0.90;;
63016;SDS011;50274;45.640;11.756;2023-05-19T15:03:09;3.03;;;0.80;;